Latest Coastal Weather Observations for Robe Airport

IDS60701

Issued at 12:25 am CDT Wednesday 22 October 2014 (issued every 10 minutes, with the page automatically refreshed every 10 minutes)

About coastal observations | Map of coastal stations | Coastal observations for SA | Marine services | Other Formats
Station Details ID: 026105 Name: ROBE AIRFIELD Lat: -37.18 Lon: 139.81 Height: 3.0 m
Data from the previous 72 hours. | See also: Recent months at Robe Airport
Date/Time
CDT
Temp

°C
Wind Pressure Rain
since 9am
mm
Weather Cloud Vis
km
Sea
Height
m
Swell
Dir
 
Speed
knots
Gust
knots
hPa Trend Height
m
Period
s
Dir
22/12:00am 19.9 NE 6 7 1016.8 - 0.0 - - - - - - -
 
Date/Time
CDT
Temp

°C
Wind Pressure Rain
since 9am
mm
Weather Cloud Vis
km
Sea
Height
m
Swell
Dir
 
Speed
knots
Gust
knots
hPa Trend Height
m
Period
s
Dir
21/11:30pm 20.8 NNE 6 8 1017.0 - 0.0 - - - - - - -
21/11:00pm 21.1 NE 5 7 1017.0 - 0.0 - - - - - - -
21/10:30pm 21.6 NE 5 7 1017.5 - 0.0 - - - - - - -
21/10:00pm 21.7 NE 7 8 1017.5 - 0.0 - - - - - - -
21/09:30pm 21.3 ENE 6 9 1017.5 - 0.0 - - - - - - -
21/09:00pm 21.9 ENE 6 7 1017.6 - 0.0 - - - - - - -
21/08:30pm 24.3 ENE 5 7 1017.3 - 0.0 - - - - - - -
21/08:00pm 24.6 NE 4 5 1017.2 - 0.0 - - - - - - -
21/07:30pm 24.9 E 6 8 1017.1 - 0.0 - - - - - - -
21/07:00pm 25.5 E 6 8 1017.2 - 0.0 - - - - - - -
21/06:30pm 27.9 ENE 4 6 1017.3 - 0.0 - - - - - - -
21/06:00pm 30.4 ENE 6 8 1017.4 - 0.0 - - - - - - -
21/05:30pm 31.6 NE 7 10 1017.6 - 0.0 - - - - - - -
21/05:00pm 32.0 NE 9 14 1017.8 - 0.0 - - - - - - -
21/04:30pm 30.9 ENE 8 11 1017.8 - 0.0 - - - - - - -
21/04:00pm 32.0 ENE 10 16 1018.0 - 0.0 - - - - - - -
21/03:30pm 31.5 NE 10 15 1018.5 - 0.0 - - - - - - -
21/03:00pm 31.2 NE 9 13 1019.0 - 0.0 - - - - - - -
21/02:30pm 30.9 NE 10 14 1019.6 - 0.0 - - - - - - -
21/02:00pm 30.3 NE 9 14 1020.1 - 0.0 - - - - - - -
21/01:30pm 29.7 ENE 8 13 1020.5 - 0.0 - - - - - - -
21/01:00pm 28.8 ENE 9 13 1021.0 - 0.0 - - - - - - -
21/12:30pm 27.8 NE 9 13 1021.6 - 0.0 - - - - - - -
21/12:00pm 27.5 NE 8 13 1022.0 - 0.0 - - - - - - -
21/11:30am 25.9 NE 9 13 1022.3 - 0.0 - - - - - - -
21/11:00am 23.9 NNE 10 14 1022.6 - 0.0 - - - - - - -
21/10:30am 23.0 NE 12 16 1022.8 - 0.0 - - - - - - -
21/10:00am 20.6 NE 11 17 1023.0 - 0.0 - - - - - - -
21/09:30am 19.0 NE 11 14 1022.9 - 0.0 - - - - - - -
21/09:00am 16.6 NE 10 14 1023.1 - 0.0 - - - - - - -
21/08:30am 14.5 NE 8 12 1023.3 - 0.0 - - - - - - -
21/08:00am 11.9 ENE 6 10 1023.4 - 0.0 - - - - - - -
21/07:30am 11.5 E 4 7 1023.0 - 0.0 - - - - - - -
21/07:00am 10.3 E 6 8 1022.7 - 0.0 - - - - - - -
21/06:30am 9.8 E 6 9 1022.4 - 0.0 - - - - - - -
21/06:00am 9.5 E 5 9 1022.1 - 0.0 - - - - - - -
21/05:30am 9.4 ESE 4 8 1021.9 - 0.0 - - - - - - -
21/05:00am 9.7 ESE 5 8 1021.9 - 0.0 - - - - - - -
21/04:30am 9.3 E 7 9 1022.0 - 0.0 - - - - - - -
21/04:00am 9.3 ESE 6 8 1022.3 - 0.0 - - - - - - -
21/03:30am 9.7 SE 5 6 1022.2 - 0.0 - - - - - - -
21/03:00am 9.8 SE 4 6 1022.5 - 0.0 - - - - - - -
21/02:30am 10.2 SE 6 7 1022.8 - 0.0 - - - - - - -
21/02:00am 10.0 SE 6 8 1023.1 - 0.0 - - - - - - -
21/01:30am 10.3 ESE 6 7 1023.5 - 0.0 - - - - - - -
21/01:00am 10.8 ESE 6 8 1024.0 - 0.0 - - - - - - -
21/12:30am 11.2 ESE 6 8 1024.4 - 0.0 - - - - - - -
21/12:00am 12.0 ESE 6 7 1024.6 - 0.0 - - - - - - -
 
Date/Time
CDT
Temp

°C
Wind Pressure Rain
since 9am
mm
Weather Cloud Vis
km
Sea
Height
m
Swell
Dir
 
Speed
knots
Gust
knots
hPa Trend Height
m
Period
s
Dir
20/11:30pm 12.7 SE 6 8 1024.7 - 0.0 - - - - - - -
20/11:00pm 13.5 SE 7 10 1024.7 - 0.0 - - - - - - -
20/10:30pm 14.0 SE 7 10 1024.9 - 0.0 - - - - - - -
20/10:00pm 14.2 SE 7 9 1025.0 - 0.0 - - - - - - -
20/09:30pm 14.8 ESE 7 10 1025.2 - 0.0 - - - - - - -
20/09:00pm 14.7 ESE 7 9 1024.9 - 0.0 - - - - - - -
20/08:30pm 15.1 ESE 7 8 1024.5 - 0.0 - - - - - - -
20/08:00pm 15.6 SE 6 8 1024.3 - 0.0 - - - - - - -
20/07:30pm 17.1 ESE 7 9 1024.2 - 0.0 - - - - - - -
20/07:00pm 18.6 ESE 7 12 1023.9 - 0.0 - - - - - - -
20/06:30pm 20.1 ESE 10 14 1023.6 - 0.0 - - - - - - -
20/06:00pm 20.8 ESE 12 16 1023.7 - 0.0 - - - - - - -
20/05:30pm 21.5 ESE 12 17 1023.9 - 0.0 - - - - - - -
20/05:00pm 21.8 SE 11 14 1024.1 - 0.0 - - - - - - -
20/04:30pm 20.9 ESE 11 15 1024.4 - 0.0 - - - - - - -
20/04:00pm 22.3 SE 9 14 1024.7 - 0.0 - - - - - - -
20/03:30pm 22.4 SE 9 14 1025.0 - 0.0 - - - - - - -
20/03:00pm 22.0 SSE 9 13 1025.3 - 0.0 - - - - - - -
20/02:30pm 21.8 SSE 9 13 1025.8 - 0.0 - - - - - - -
20/02:00pm 21.4 SE 9 13 1026.4 - 0.0 - - - - - - -
20/01:30pm 20.1 ESE 7 12 1026.7 - 0.0 - - - - - - -
20/01:00pm 19.7 E 8 13 1026.8 - 0.0 - - - - - - -
20/12:30pm 19.0 E 8 14 1027.2 - 0.0 - - - - - - -
20/12:00pm 18.6 ESE 10 15 1027.5 - 0.0 - - - - - - -
20/11:30am 17.4 ESE 10 16 1028.2 - 0.0 - - - - - - -
20/11:00am 16.4 ESE 11 16 1028.6 - 0.0 - - - - - - -
20/10:30am 15.5 E 12 19 1028.9 - 0.0 - - - - - - -
20/10:00am 14.9 ESE 14 20 1028.9 - 0.0 - - - - - - -
20/09:30am 13.9 ESE 13 19 1029.2 - 0.0 - - - - - - -
20/09:00am 12.4 ESE 15 21 1029.3 - 0.0 - - - - - - -
20/08:30am 11.8 SE 15 23 1029.3 - 0.0 - - - - - - -
20/08:00am 11.2 ESE 12 17 1029.2 - 0.0 - - - - - - -
20/07:30am 10.2 SE 9 13 1029.0 - 0.0 - - - - - - -
20/07:00am 8.9 SE 6 9 1028.8 - 0.0 - - - - - - -
20/06:30am 8.1 SE 6 10 1028.1 - 0.0 - - - - - - -
20/06:00am 8.5 SE 7 10 1027.4 - 0.0 - - - - - - -
20/05:30am 9.1 SE 9 12 1027.4 - 0.0 - - - - - - -
20/05:00am 9.6 SE 11 16 1027.3 - 0.0 - - - - - - -
20/04:30am 9.6 SE 11 15 1027.0 - 0.0 - - - - - - -
20/04:00am 9.7 SE 10 14 1026.9 - 0.0 - - - - - - -
20/03:30am 9.9 SE 10 14 1026.9 - 0.0 - - - - - - -
20/03:00am 10.0 SE 10 14 1027.1 - 0.0 - - - - - - -
20/02:30am 10.4 SE 12 17 1027.0 - 0.0 - - - - - - -
20/02:00am 10.8 SE 13 18 1027.1 - 0.0 - - - - - - -
20/01:30am 10.9 SE 13 20 1027.0 - 0.0 - - - - - - -
20/01:00am 11.3 SE 14 20 1027.1 - 0.0 - - - - - - -
20/12:30am 11.5 SE 13 20 1027.2 - 0.0 - - - - - - -
20/12:00am 11.6 SE 13 20 1027.2 - 0.0 - - - - - - -
 
Date/Time
CDT
Temp

°C
Wind Pressure Rain
since 9am
mm
Weather Cloud Vis
km
Sea
Height
m
Swell
Dir
 
Speed
knots
Gust
knots
hPa Trend Height
m
Period
s
Dir
19/11:30pm 11.8 SE 13 20 1027.3 - 0.0 - - - - - - -
19/11:00pm 12.1 SE 14 21 1027.4 - 0.0 - - - - - - -
19/10:30pm 12.2 SE 14 21 1027.0 - 0.0 - - - - - - -
19/10:00pm 12.3 SE 14 21 1027.1 - 0.0 - - - - - - -
19/09:30pm 12.4 SE 11 19 1026.9 - 0.0 - - - - - - -
19/09:00pm 13.0 SE 14 21 1026.9 - 0.0 - - - - - - -
19/08:30pm 13.3 SSE 15 25 1026.6 - 0.0 - - - - - - -
19/08:00pm 13.3 SSE 16 23 1026.1 - 0.0 - - - - - - -
19/07:30pm 13.4 SSE 15 23 1025.5 - 0.0 - - - - - - -
19/07:15pm 13.5 SSE 16 27 1025.4 - 0.0 - - - - - - -
19/07:00pm 13.9 SSE 17 24 1025.4 - 0.0 - - - - - - -
19/06:30pm 14.4 SSE 16 23 1024.6 - 0.0 - - - - - - -
19/06:00pm 15.3 SSE 15 21 1024.3 - 0.0 - - - - - - -
19/05:30pm 15.3 SSE 15 22 1024.0 - 0.0 - - - - - - -
19/05:00pm 15.5 SSE 14 20 1023.7 - 0.0 - - - - - - -
19/04:30pm 15.3 SSE 14 20 1023.6 - 0.0 - - - - - - -
19/04:00pm 15.3 S 17 24 1024.0 - 0.0 - - - - - - -
19/03:30pm 15.8 S 18 25 1023.4 - 0.0 - - - - - - -
19/03:00pm 16.7 S 16 22 1022.8 - 0.0 - - - - - - -
19/02:30pm 17.8 S 17 23 1023.0 - 0.0 - - - - - - -
19/02:00pm 17.6 S 15 20 1022.5 - 0.0 - - - - - - -
19/01:30pm 17.8 SSE 13 19 1021.9 - 0.0 - - - - - - -
19/01:00pm 16.9 S 14 20 1022.0 - 0.0 - - - - - - -
19/12:30pm 17.3 S 12 18 1022.1 - 0.0 - - - - - - -
19/12:00pm 16.9 S 16 20 1022.0 - 0.0 - - - - - - -
19/11:30am 17.7 S 13 18 1021.8 - 0.0 - - - - - - -
19/11:00am 16.6 S 13 17 1021.6 - 0.0 - - - - - - -
19/10:30am 16.4 S 13 17 1021.2 - 0.0 - - - - - - -
19/10:00am 16.7 SSW 10 16 1021.2 - 0.0 - - - - - - -
19/09:30am 15.3 SE 4 6 1020.1 - 0.0 - - - - - - -
19/09:00am 14.6 SE 5 7 1019.7 - 0.0 - - - - - - -
19/08:30am 14.1 S 6 8 1020.0 - 0.0 - - - - - - -
19/08:00am 12.6 SE 4 6 1019.4 - 0.0 - - - - - - -
19/07:30am 11.9 S 3 4 1019.2 - 0.0 - - - - - - -
19/07:00am 11.3 S 3 4 1019.0 - 0.0 - - - - - - -
19/06:30am 11.1 S 4 5 1018.7 - 0.0 - - - - - - -
19/06:00am 10.6 ENE 4 6 1018.1 - 0.0 - - - - - - -
19/05:30am 11.0 SE 3 4 1018.1 - 0.0 - - - - - - -
19/05:00am 10.2 S 6 8 1018.5 - 0.0 - - - - - - -
19/04:30am 9.8 SSE 2 3 1017.9 - 0.0 - - - - - - -
19/04:00am 10.2 S 3 4 1018.1 - 0.0 - - - - - - -
19/03:30am 11.4 ESE 2 3 1018.4 - 0.0 - - - - - - -
19/03:00am 11.0 E 3 4 1018.5 - 0.0 - - - - - - -
19/02:30am 10.5 E 3 4 1018.8 - 0.0 - - - - - - -
19/02:00am 10.3 E 2 2 1019.3 - 0.0 - - - - - - -
19/01:30am 9.8 SE 2 3 1019.5 - 0.0 - - - - - - -
19/01:00am 10.4 S 2 3 1019.9 - 0.0 - - - - - - -
19/12:30am 10.0 S 3 5 1019.8 - 0.0 - - - - - - -

Other Formats:

Comma delimited format used in spreadsheet applications
http://www.bom.gov.au/fwo/IDS60701/IDS60701.95816.axf

JavaScript Object Notation format (JSON) in row-major order
http://www.bom.gov.au/fwo/IDS60701/IDS60701.95816.json